createdAt,value
2023-01-17T05:00:42.470Z,1.06
2023-01-17T05:01:42.448Z,1.08
2023-01-17T05:02:42.581Z,1.06
2023-01-17T05:03:42.438Z,1.06
2023-01-17T05:04:42.318Z,1.06
2023-01-17T05:05:42.279Z,1.08
2023-01-17T05:06:42.345Z,1.09
2023-01-17T05:07:42.256Z,1.12
2023-01-17T05:08:42.277Z,1.16
2023-01-17T05:09:42.308Z,1.20
2023-01-17T05:10:42.344Z,1.22
2023-01-17T05:11:42.225Z,1.20
2023-01-17T05:12:42.225Z,1.20
2023-01-17T05:13:42.188Z,1.20
2023-01-17T05:14:49.223Z,1.20
2023-01-17T05:15:49.252Z,1.18
2023-01-17T05:16:49.192Z,1.16
2023-01-17T05:17:49.146Z,1.16
2023-01-17T05:18:49.396Z,1.14
2023-01-17T05:19:49.128Z,1.12
2023-01-17T05:20:42.108Z,1.12
2023-01-17T05:21:42.080Z,1.15
2023-01-17T05:22:42.080Z,1.15
2023-01-17T05:23:42.062Z,1.14
2023-01-17T05:24:42.125Z,1.15
2023-01-17T05:25:42.148Z,1.18
2023-01-17T05:26:42.038Z,1.20
2023-01-17T05:27:42.022Z,1.23
2023-01-17T05:28:42.026Z,1.24
2023-01-17T05:29:42.018Z,1.27
2023-01-17T05:30:42.509Z,1.30
2023-01-17T05:31:41.960Z,1.36
2023-01-17T05:32:42.167Z,1.40
2023-01-17T05:33:41.927Z,1.37
2023-01-17T05:34:41.946Z,1.40
2023-01-17T05:35:41.911Z,1.40
2023-01-17T05:36:42.367Z,1.41
2023-01-17T05:37:41.879Z,1.44
2023-01-17T05:38:41.885Z,1.44
2023-01-17T05:39:41.853Z,1.45
2023-01-17T05:40:41.950Z,1.47
2023-01-17T05:41:41.879Z,1.48
2023-01-17T05:42:41.902Z,1.50
2023-01-17T05:43:41.814Z,1.51
2023-01-17T05:44:41.826Z,1.52
2023-01-17T05:45:41.772Z,1.52
2023-01-17T05:46:41.812Z,1.52
2023-01-17T05:47:41.754Z,1.52
2023-01-17T05:48:41.863Z,1.52
2023-01-17T05:49:42.615Z,1.54
2023-01-17T05:50:41.735Z,1.55
2023-01-17T05:51:41.703Z,1.55
2023-01-17T05:52:41.714Z,1.54
2023-01-17T05:53:41.685Z,1.52
2023-01-17T05:54:41.742Z,1.54
2023-01-17T05:55:41.652Z,1.55
2023-01-17T05:56:41.649Z,1.58
2023-01-17T05:57:41.625Z,1.58
2023-01-17T05:58:41.635Z,1.58
2023-01-17T05:59:41.603Z,1.55
2023-01-17T06:00:42.167Z,1.58
2023-01-17T06:01:41.580Z,1.58
2023-01-17T06:02:41.654Z,1.54
2023-01-17T06:03:41.549Z,1.51
2023-01-17T06:04:41.621Z,1.52
2023-01-17T06:05:41.544Z,1.52
2023-01-17T06:06:42.037Z,1.54
2023-01-17T06:07:41.500Z,1.58
2023-01-17T06:08:41.496Z,1.55
2023-01-17T06:09:41.467Z,1.55
2023-01-17T06:10:41.502Z,1.54
2023-01-17T06:11:41.502Z,1.58
2023-01-17T06:12:41.497Z,1.58
2023-01-17T06:13:41.545Z,1.54
2023-01-17T06:14:41.639Z,1.55
2023-01-17T06:15:41.426Z,1.59
2023-01-17T06:16:41.392Z,1.60
2023-01-17T06:17:41.386Z,1.60
2023-01-17T06:18:41.395Z,1.54
2023-01-17T06:19:41.341Z,1.52
2023-01-17T06:20:41.396Z,1.47
2023-01-17T06:21:41.313Z,1.44
2023-01-17T06:22:41.324Z,1.40
2023-01-17T06:23:41.310Z,1.33
2023-01-17T06:24:41.501Z,1.26
2023-01-17T06:25:41.269Z,1.20
2023-01-17T06:26:41.455Z,1.16
2023-01-17T06:27:41.241Z,1.15
2023-01-17T06:28:41.244Z,1.14
2023-01-17T06:29:41.221Z,1.09
2023-01-17T06:30:41.522Z,1.04
2023-01-17T06:31:41.276Z,1.00
2023-01-17T06:32:41.931Z,0.97
2023-01-17T06:33:41.156Z,0.93
2023-01-17T06:34:41.182Z,0.90
2023-01-17T06:35:41.150Z,0.87
2023-01-17T06:36:41.226Z,0.86
2023-01-17T06:37:41.119Z,0.83
2023-01-17T06:38:41.117Z,0.79
2023-01-17T06:39:41.111Z,0.76
2023-01-17T06:40:41.103Z,0.73
2023-01-17T06:41:41.157Z,0.72
2023-01-17T06:42:41.206Z,0.75
2023-01-17T06:43:41.040Z,0.73
2023-01-17T06:44:41.075Z,0.73
2023-01-17T06:45:41.045Z,0.72
2023-01-17T06:46:41.028Z,0.72
2023-01-17T06:47:40.983Z,0.72
2023-01-17T06:48:41.051Z,0.70
2023-01-17T06:49:40.979Z,0.69
2023-01-17T06:50:42.139Z,0.75
2023-01-17T06:51:43.467Z,0.79
2023-01-17T06:52:40.943Z,0.86
2023-01-17T06:53:40.920Z,0.90
2023-01-17T06:54:40.938Z,0.93
2023-01-17T06:55:40.961Z,0.91
2023-01-17T06:56:41.005Z,0.94
2023-01-17T06:57:40.867Z,0.96
2023-01-17T06:58:40.874Z,0.94
2023-01-17T06:59:40.845Z,0.96
2023-01-17T07:00:41.236Z,0.97
2023-01-17T07:01:40.841Z,0.96
2023-01-17T07:02:41.095Z,0.96
2023-01-17T07:03:40.844Z,0.97
2023-01-17T07:04:40.806Z,0.98
2023-01-17T07:05:40.782Z,0.97
2023-01-17T07:06:40.819Z,0.98
2023-01-17T07:07:40.748Z,1.00
2023-01-17T07:08:41.059Z,1.02
2023-01-17T07:09:40.730Z,1.02
2023-01-17T07:10:40.738Z,1.02
2023-01-17T07:11:40.691Z,1.04
2023-01-17T07:12:40.708Z,1.05
2023-01-17T07:13:40.675Z,1.05
2023-01-17T07:14:40.875Z,1.06
2023-01-17T07:15:40.644Z,1.05
2023-01-17T07:16:40.657Z,1.05
2023-01-17T07:17:40.616Z,1.04
2023-01-17T07:18:40.624Z,1.04
2023-01-17T07:19:40.593Z,1.02
2023-01-17T07:20:40.655Z,1.05
2023-01-17T07:21:40.571Z,1.05
2023-01-17T07:22:40.580Z,1.08
2023-01-17T07:23:40.555Z,1.11
2023-01-17T07:24:40.550Z,1.12
2023-01-17T07:25:40.515Z,1.14
2023-01-17T07:26:40.594Z,1.16
2023-01-17T07:27:40.504Z,1.20
2023-01-17T07:28:40.532Z,1.20
2023-01-17T07:29:40.464Z,1.20
2023-01-17T07:30:40.478Z,1.20
2023-01-17T07:31:40.530Z,1.23
2023-01-17T07:32:42.616Z,1.24
2023-01-17T07:33:40.424Z,1.22
2023-01-17T07:34:40.440Z,1.24
2023-01-17T07:35:40.389Z,1.27
2023-01-17T07:36:40.397Z,1.33
2023-01-17T07:37:40.366Z,1.40
2023-01-17T07:38:41.346Z,1.45
2023-01-17T07:39:40.349Z,1.55
2023-01-17T07:40:42.378Z,1.72
2023-01-17T07:41:40.318Z,1.91
2023-01-17T07:42:40.332Z,2.06
2023-01-17T07:43:40.304Z,2.03
2023-01-17T07:44:41.323Z,2.00
2023-01-17T07:45:40.253Z,2.05
2023-01-17T07:46:40.341Z,2.10
2023-01-17T07:47:40.233Z,2.09
2023-01-17T07:48:40.250Z,2.03
2023-01-17T07:49:40.222Z,1.90
2023-01-17T07:50:40.452Z,1.83
2023-01-17T07:51:40.193Z,1.73
2023-01-17T07:52:40.199Z,1.69
2023-01-17T07:53:40.175Z,1.63
2023-01-17T07:54:40.199Z,1.59
2023-01-17T07:55:40.150Z,1.51
2023-01-17T07:56:40.902Z,1.45
2023-01-17T07:57:40.110Z,1.41
2023-01-17T07:58:40.143Z,1.40
2023-01-17T07:59:40.081Z,1.42
2023-01-17T08:00:40.105Z,1.45
2023-01-17T08:01:40.156Z,1.48
2023-01-17T08:02:40.240Z,1.52
2023-01-17T08:03:40.370Z,1.60
2023-01-17T08:04:40.040Z,1.65
2023-01-17T08:05:40.021Z,1.68
2023-01-17T08:06:40.006Z,1.69
2023-01-17T08:07:39.976Z,1.70
2023-01-17T08:08:40.045Z,1.72
2023-01-17T08:09:39.984Z,1.73
2023-01-17T08:10:40.054Z,1.81
2023-01-17T08:11:40.022Z,1.90
2023-01-17T08:12:39.924Z,1.99
2023-01-17T08:13:39.913Z,2.05
2023-01-17T08:14:39.916Z,2.12
2023-01-17T08:15:39.888Z,2.21
2023-01-17T08:16:39.886Z,2.25
2023-01-17T08:17:40.068Z,2.31
2023-01-17T08:18:39.861Z,2.34
2023-01-17T08:19:39.842Z,2.36
2023-01-17T08:20:39.841Z,2.42
2023-01-17T08:21:39.806Z,2.42
2023-01-17T08:22:39.815Z,2.43
2023-01-17T08:23:39.920Z,2.45
2023-01-17T08:24:39.805Z,2.42
2023-01-17T08:25:39.760Z,2.41
2023-01-17T08:26:39.765Z,2.42
2023-01-17T08:27:39.739Z,2.43
2023-01-17T08:28:39.740Z,2.45
2023-01-17T08:29:39.797Z,2.45
2023-01-17T08:30:39.731Z,2.46
2023-01-17T08:31:39.726Z,2.48
2023-01-17T08:32:39.677Z,2.53
2023-01-17T08:33:39.657Z,2.56
2023-01-17T08:34:39.656Z,2.59
2023-01-17T08:35:39.657Z,2.59
2023-01-17T08:36:39.651Z,2.54
2023-01-17T08:37:39.890Z,2.54
2023-01-17T08:38:39.625Z,2.53
2023-01-17T08:39:39.615Z,2.52
2023-01-17T08:40:39.589Z,2.46
2023-01-17T08:41:39.553Z,2.45
2023-01-17T08:42:39.568Z,2.46
2023-01-17T08:43:39.685Z,2.52
2023-01-17T08:44:39.535Z,2.56
2023-01-17T08:45:39.521Z,2.60
2023-01-17T08:46:39.504Z,2.61
2023-01-17T08:47:39.484Z,2.59
2023-01-17T08:48:39.485Z,2.54
2023-01-17T08:49:39.512Z,2.53
2023-01-17T08:50:39.441Z,2.56
2023-01-17T08:51:39.443Z,2.59
2023-01-17T08:52:39.415Z,2.66
2023-01-17T08:53:39.423Z,2.74
2023-01-17T08:54:39.429Z,2.79
2023-01-17T08:55:39.458Z,2.85
2023-01-17T08:56:39.352Z,2.89
2023-01-17T08:57:39.364Z,2.92
2023-01-17T08:58:39.339Z,2.96
2023-01-17T08:59:39.342Z,2.97
2023-01-17T09:00:39.326Z,2.97
2023-01-17T09:01:39.390Z,3.00
2023-01-17T09:02:39.350Z,3.00
2023-01-17T09:03:40.921Z,2.99
2023-01-17T09:04:39.293Z,2.96
2023-01-17T09:05:39.252Z,2.95
2023-01-17T09:06:39.239Z,2.92
2023-01-17T09:07:39.236Z,2.92
2023-01-17T09:08:39.415Z,2.87
2023-01-17T09:09:39.216Z,2.82
2023-01-17T09:10:39.177Z,2.79
2023-01-17T09:11:39.231Z,2.77
2023-01-17T09:12:39.146Z,2.74
2023-01-17T09:13:39.184Z,2.72
2023-01-17T09:14:39.204Z,2.71
2023-01-17T09:15:39.142Z,2.67
2023-01-17T09:16:39.106Z,2.69
2023-01-17T09:17:39.103Z,2.67
2023-01-17T09:18:39.078Z,2.71
2023-01-17T09:19:39.083Z,2.71
2023-01-17T09:20:40.138Z,2.72
2023-01-17T09:21:39.056Z,2.72
2023-01-17T09:22:39.023Z,2.74
2023-01-17T09:23:39.028Z,2.75
2023-01-17T09:24:38.992Z,2.74
2023-01-17T09:25:38.992Z,2.75
2023-01-17T09:26:40.579Z,2.78
2023-01-17T09:27:38.977Z,2.78
2023-01-17T09:28:38.989Z,2.79
2023-01-17T09:29:38.947Z,2.82
2023-01-17T09:30:38.955Z,2.87
2023-01-17T09:31:38.930Z,2.89
2023-01-17T09:32:38.921Z,2.92
2023-01-17T09:33:38.939Z,2.92
2023-01-17T09:34:38.867Z,2.93
2023-01-17T09:35:38.879Z,2.97
2023-01-17T09:36:38.852Z,3.00
2023-01-17T09:37:38.896Z,3.00
2023-01-17T09:38:39.199Z,3.08
2023-01-17T09:39:38.827Z,3.14
2023-01-17T09:40:38.799Z,3.17
2023-01-17T09:41:38.827Z,3.18
2023-01-17T09:42:38.966Z,3.20
2023-01-17T09:43:40.849Z,3.21
2023-01-17T09:44:39.384Z,3.23
2023-01-17T09:45:38.809Z,3.23
2023-01-17T09:46:38.716Z,3.23
2023-01-17T09:47:38.749Z,3.28
2023-01-17T09:48:38.705Z,3.33
2023-01-17T09:49:38.704Z,3.39
2023-01-17T09:50:39.794Z,3.43
2023-01-17T09:51:38.684Z,3.42
2023-01-17T09:52:38.667Z,3.51
2023-01-17T09:53:38.643Z,3.55
2023-01-17T09:54:38.617Z,3.61
2023-01-17T09:55:38.623Z,3.66
2023-01-17T09:56:38.832Z,3.68
2023-01-17T09:57:38.604Z,3.75
2023-01-17T09:58:38.606Z,3.80
2023-01-17T09:59:38.571Z,3.84
2023-01-17T10:00:38.565Z,3.79
2023-01-17T10:01:38.740Z,3.83
2023-01-17T10:02:38.916Z,3.88
2023-01-17T10:03:38.605Z,4.00
2023-01-17T10:04:38.490Z,4.08
2023-01-17T10:05:38.527Z,4.11
2023-01-17T10:06:38.470Z,4.11
2023-01-17T10:07:38.494Z,4.12
2023-01-17T10:08:38.471Z,4.16
2023-01-17T10:09:38.437Z,4.23
2023-01-17T10:10:38.411Z,4.20
2023-01-17T10:11:38.418Z,4.18
2023-01-17T10:12:38.388Z,4.22
2023-01-17T10:13:38.632Z,4.29
2023-01-17T10:14:38.366Z,4.30
2023-01-17T10:15:38.380Z,4.34
2023-01-17T10:16:38.370Z,4.37
2023-01-17T10:17:38.360Z,4.37
2023-01-17T10:18:38.306Z,4.37
2023-01-17T10:19:38.447Z,4.37
2023-01-17T10:20:38.298Z,4.40
2023-01-17T10:21:38.295Z,4.36
2023-01-17T10:22:38.257Z,4.30
2023-01-17T10:23:38.331Z,4.24
2023-01-17T10:24:38.295Z,4.18
2023-01-17T10:25:38.284Z,4.16
2023-01-17T10:26:38.213Z,4.15
2023-01-17T10:27:38.222Z,4.16
2023-01-17T10:28:38.191Z,4.24
2023-01-17T10:29:38.205Z,4.27
2023-01-17T10:30:38.179Z,4.36
2023-01-17T10:31:38.450Z,4.44
2023-01-17T10:32:38.121Z,4.47
2023-01-17T10:33:38.133Z,4.47
2023-01-17T10:34:38.103Z,4.54
2023-01-17T10:35:38.127Z,4.60
2023-01-17T10:36:38.111Z,4.62
2023-01-17T10:37:38.372Z,4.63
2023-01-17T10:38:38.135Z,4.72
2023-01-17T10:39:38.081Z,4.80
2023-01-17T10:40:38.070Z,4.82
2023-01-17T10:41:38.066Z,4.80
2023-01-17T10:42:38.011Z,4.84
2023-01-17T10:43:38.350Z,4.84
2023-01-17T10:44:37.985Z,4.88
2023-01-17T10:45:38.002Z,4.80
2023-01-17T10:46:37.945Z,4.80
2023-01-17T10:47:37.964Z,4.85
2023-01-17T10:48:37.929Z,4.91
2023-01-17T10:49:38.156Z,4.94
2023-01-17T10:50:37.956Z,5.04
2023-01-17T10:51:37.938Z,5.13
2023-01-17T10:52:37.922Z,5.22
2023-01-17T10:53:37.881Z,5.28
2023-01-17T10:54:37.856Z,5.30
2023-01-17T10:55:38.688Z,5.25
2023-01-17T10:56:37.823Z,5.28
2023-01-17T10:57:37.839Z,5.28
2023-01-17T10:58:37.816Z,5.20
2023-01-17T10:59:37.800Z,5.06
2023-01-17T11:00:37.766Z,5.04
2023-01-17T11:01:39.012Z,5.04
2023-01-17T11:02:37.764Z,5.10
2023-01-17T11:03:37.745Z,5.03
2023-01-17T11:04:37.711Z,5.03
2023-01-17T11:05:37.733Z,5.04
2023-01-17T11:06:46.458Z,5.07
2023-01-17T11:07:40.044Z,5.10
2023-01-17T11:08:37.660Z,5.07
2023-01-17T11:09:37.702Z,5.12
2023-01-17T11:10:37.641Z,5.12
2023-01-17T11:11:37.658Z,5.12
2023-01-17T11:12:37.611Z,5.17
2023-01-17T11:13:37.744Z,5.24
2023-01-17T11:14:45.813Z,5.36
2023-01-17T11:15:37.675Z,5.40
2023-01-17T11:16:40.413Z,5.43
2023-01-17T11:17:37.574Z,5.48
2023-01-17T11:18:37.549Z,5.45
2023-01-17T11:19:37.612Z,5.51
2023-01-17T11:20:37.523Z,5.61
2023-01-17T11:21:37.534Z,5.68
2023-01-17T11:22:37.491Z,5.74
2023-01-17T11:23:37.504Z,5.64
2023-01-17T11:24:37.486Z,5.61
2023-01-17T11:25:37.611Z,5.56
2023-01-17T11:26:37.454Z,5.51
2023-01-17T11:27:37.442Z,5.56
2023-01-17T11:28:37.590Z,5.60
2023-01-17T11:29:37.424Z,5.61
2023-01-17T11:30:37.382Z,5.56
2023-01-17T11:31:38.385Z,5.54
2023-01-17T11:32:37.359Z,5.64
2023-01-17T11:33:37.437Z,5.71
2023-01-17T11:34:37.347Z,5.75
2023-01-17T11:35:37.341Z,5.79
2023-01-17T11:36:37.392Z,5.78
2023-01-17T11:37:38.318Z,5.83
2023-01-17T11:38:37.277Z,5.81
2023-01-17T11:39:37.278Z,5.85
2023-01-17T11:40:37.514Z,5.91
2023-01-17T11:41:37.299Z,5.96
2023-01-17T11:42:37.287Z,5.93
2023-01-17T11:43:37.337Z,5.97
2023-01-17T11:44:37.212Z,5.91
2023-01-17T11:45:37.224Z,5.85
2023-01-17T11:46:37.206Z,5.89
2023-01-17T11:47:37.197Z,5.86
2023-01-17T11:48:37.196Z,5.83
2023-01-17T11:49:37.410Z,5.85
2023-01-17T11:50:37.157Z,5.81
2023-01-17T11:51:37.179Z,5.79
2023-01-17T11:52:37.097Z,5.91
2023-01-17T11:53:37.144Z,5.86
2023-01-17T11:54:37.093Z,5.82
2023-01-17T11:55:40.165Z,5.85
2023-01-17T11:56:37.059Z,5.79
2023-01-17T11:57:37.054Z,5.76
2023-01-17T11:58:37.048Z,5.76
2023-01-17T11:59:37.029Z,5.76
2023-01-17T12:00:37.797Z,5.79
2023-01-17T12:01:37.433Z,5.89
2023-01-17T12:02:36.995Z,5.91
2023-01-17T12:03:37.125Z,5.91
2023-01-17T12:04:36.969Z,5.86
2023-01-17T12:05:36.965Z,5.74
2023-01-17T12:06:51.509Z,5.65
2023-01-17T12:07:38.059Z,5.58
2023-01-17T12:08:36.904Z,5.48
2023-01-17T12:09:36.930Z,5.36
2023-01-17T12:10:37.004Z,5.28
2023-01-17T12:11:36.903Z,5.13
2023-01-17T12:12:37.091Z,5.07
2023-01-17T12:13:37.301Z,5.00
2023-01-17T12:14:36.822Z,4.96
2023-01-17T12:15:36.885Z,4.96
2023-01-17T12:16:36.795Z,4.89
2023-01-17T12:17:36.844Z,4.88
2023-01-17T12:18:36.781Z,4.84
2023-01-17T12:19:36.859Z,4.84
2023-01-17T12:20:36.809Z,4.88
2023-01-17T12:21:36.797Z,4.89
2023-01-17T12:22:36.739Z,4.89
2023-01-17T12:23:36.720Z,4.91
2023-01-17T12:24:36.708Z,4.92
2023-01-17T12:25:36.804Z,4.88
2023-01-17T12:26:36.682Z,4.88
2023-01-17T12:27:36.689Z,4.88
2023-01-17T12:28:36.668Z,4.88
2023-01-17T12:29:36.649Z,4.91
2023-01-17T12:30:36.686Z,4.91
2023-01-17T12:31:37.614Z,4.91
2023-01-17T12:32:36.587Z,4.89
2023-01-17T12:33:36.606Z,4.88
2023-01-17T12:34:36.573Z,4.84
2023-01-17T12:35:36.595Z,4.86
2023-01-17T12:36:36.546Z,4.89
2023-01-17T12:37:36.988Z,4.92
2023-01-17T12:38:36.538Z,4.89
2023-01-17T12:39:36.534Z,4.89
2023-01-17T12:40:36.508Z,4.96
2023-01-17T12:41:36.495Z,4.96
2023-01-17T12:42:36.457Z,5.00
2023-01-17T12:43:36.584Z,5.02
2023-01-17T12:44:36.469Z,5.03
2023-01-17T12:45:37.463Z,5.09
2023-01-17T12:46:36.453Z,5.12
2023-01-17T12:47:36.478Z,5.15
2023-01-17T12:48:36.400Z,5.20
2023-01-17T12:49:36.403Z,5.27
2023-01-17T12:50:36.382Z,5.33
2023-01-17T12:51:36.591Z,5.28
2023-01-17T12:52:36.331Z,5.28
2023-01-17T12:53:36.351Z,5.36
2023-01-17T12:54:36.300Z,5.39
2023-01-17T12:55:36.312Z,5.27
2023-01-17T12:56:36.392Z,5.25
2023-01-17T12:57:36.421Z,5.28
2023-01-17T12:58:36.261Z,5.31
2023-01-17T12:59:36.282Z,5.35
2023-01-17T13:00:36.314Z,5.39
2023-01-17T13:01:36.433Z,5.39
2023-01-17T13:02:36.269Z,5.40
2023-01-17T13:03:36.213Z,5.36
2023-01-17T13:04:38.473Z,5.38
2023-01-17T13:05:37.199Z,5.42
2023-01-17T13:06:36.189Z,5.42
2023-01-17T13:07:36.439Z,5.39
2023-01-17T13:08:36.136Z,5.35
2023-01-17T13:09:36.118Z,5.28
2023-01-17T13:10:36.107Z,5.25
2023-01-17T13:11:36.097Z,5.24
2023-01-17T13:12:36.093Z,5.21
2023-01-17T13:13:36.176Z,5.30
2023-01-17T13:14:36.058Z,5.35
2023-01-17T13:15:36.077Z,5.33
2023-01-17T13:16:36.045Z,5.33
2023-01-17T13:17:36.006Z,5.28
2023-01-17T13:18:36.034Z,5.22
2023-01-17T13:19:36.121Z,5.25
2023-01-17T13:20:35.988Z,5.27
2023-01-17T13:21:35.965Z,5.27
2023-01-17T13:22:36.040Z,5.28
2023-01-17T13:23:35.925Z,5.22
2023-01-17T13:24:35.951Z,5.21
2023-01-17T13:25:36.699Z,5.25
2023-01-17T13:26:35.915Z,5.27
2023-01-17T13:27:35.905Z,5.30
2023-01-17T13:28:35.965Z,5.35
2023-01-17T13:29:35.845Z,5.33
2023-01-17T13:30:35.858Z,5.31
2023-01-17T13:31:36.063Z,5.22
2023-01-17T13:32:35.905Z,5.17
2023-01-17T13:33:35.797Z,5.21
2023-01-17T13:34:35.877Z,5.21
2023-01-17T13:35:35.764Z,5.24
2023-01-17T13:36:35.812Z,5.25
2023-01-17T13:37:35.838Z,5.33
2023-01-17T13:38:35.766Z,5.30
2023-01-17T13:39:35.725Z,5.27
2023-01-17T13:40:35.731Z,5.17
2023-01-17T13:41:35.711Z,5.18
2023-01-17T13:42:35.880Z,5.21
2023-01-17T13:43:35.937Z,5.18
2023-01-17T13:44:35.680Z,5.12
2023-01-17T13:45:35.747Z,5.09
2023-01-17T13:46:35.647Z,5.10
2023-01-17T13:47:35.618Z,5.15
2023-01-17T13:48:35.818Z,5.18
2023-01-17T13:49:35.600Z,5.17
2023-01-17T13:50:35.613Z,5.13
2023-01-17T13:51:35.626Z,5.10
2023-01-17T13:52:35.619Z,5.15
2023-01-17T13:53:35.553Z,5.21
2023-01-17T13:54:35.614Z,5.15
2023-01-17T13:55:35.513Z,5.03
2023-01-17T13:56:35.521Z,5.03
2023-01-17T13:57:35.543Z,5.02
2023-01-17T13:58:35.492Z,5.02
2023-01-17T13:59:35.448Z,5.04
2023-01-17T14:00:35.488Z,5.04
2023-01-17T14:01:35.515Z,5.04
2023-01-17T14:02:35.473Z,5.06
2023-01-17T14:03:36.268Z,5.07
2023-01-17T14:04:35.433Z,5.03
2023-01-17T14:05:35.423Z,4.96
2023-01-17T14:06:35.431Z,4.91
2023-01-17T14:07:35.366Z,4.85
2023-01-17T14:08:35.386Z,4.80
2023-01-17T14:09:35.371Z,4.80
2023-01-17T14:10:35.373Z,4.77
2023-01-17T14:11:35.320Z,4.77
2023-01-17T14:12:35.369Z,4.78
2023-01-17T14:13:35.303Z,4.78
2023-01-17T14:14:35.309Z,4.77
2023-01-17T14:15:35.817Z,4.73
2023-01-17T14:16:35.324Z,4.77
2023-01-17T14:17:35.244Z,4.75
2023-01-17T14:18:35.229Z,4.73
2023-01-17T14:19:35.347Z,4.70
2023-01-17T14:20:35.227Z,4.63
2023-01-17T14:21:35.234Z,4.60
2023-01-17T14:22:35.186Z,4.58
2023-01-17T14:23:36.283Z,4.55
2023-01-17T14:24:35.188Z,4.52
2023-01-17T14:25:35.159Z,4.50
2023-01-17T14:26:35.120Z,4.51
2023-01-17T14:27:35.135Z,4.50
2023-01-17T14:28:35.126Z,4.47
2023-01-17T14:29:35.318Z,4.48
2023-01-17T14:30:35.087Z,4.45
2023-01-17T14:31:35.072Z,4.42
2023-01-17T14:32:35.059Z,4.42
2023-01-17T14:33:35.043Z,4.42
2023-01-17T14:34:35.016Z,4.42
2023-01-17T14:35:35.176Z,4.42
2023-01-17T14:36:35.010Z,4.40
2023-01-17T14:37:34.965Z,4.34
2023-01-17T14:38:34.984Z,4.33
2023-01-17T14:39:34.937Z,4.33
2023-01-17T14:40:34.975Z,4.32
2023-01-17T14:41:34.987Z,4.30
2023-01-17T14:42:34.935Z,4.27
2023-01-17T14:43:34.949Z,4.24
2023-01-17T14:44:34.913Z,4.24
2023-01-17T14:45:35.035Z,4.22
2023-01-17T14:46:34.894Z,4.23
2023-01-17T14:47:34.965Z,4.23
2023-01-17T14:48:35.076Z,4.20
2023-01-17T14:49:34.843Z,4.16
2023-01-17T14:50:34.832Z,4.14
2023-01-17T14:51:34.789Z,4.14
2023-01-17T14:52:34.792Z,4.11
2023-01-17T14:53:34.763Z,4.11
2023-01-17T14:54:34.815Z,4.08
2023-01-17T14:55:34.730Z,4.04
2023-01-17T14:56:34.780Z,4.00
2023-01-17T14:57:34.701Z,3.98
2023-01-17T14:58:34.730Z,3.98
2023-01-17T14:59:34.690Z,3.94
2023-01-17T15:00:35.744Z,3.97
2023-01-17T15:01:35.205Z,3.93
2023-01-17T15:02:34.997Z,3.96
2023-01-17T15:03:34.672Z,3.91
2023-01-17T15:04:34.650Z,3.93
2023-01-17T15:05:34.621Z,3.91
2023-01-17T15:06:35.056Z,3.88
2023-01-17T15:07:34.634Z,3.87
2023-01-17T15:08:34.606Z,3.87
2023-01-17T15:09:34.570Z,3.87
2023-01-17T15:10:34.588Z,3.87
2023-01-17T15:11:34.526Z,3.84
2023-01-17T15:12:34.974Z,3.83
2023-01-17T15:13:43.722Z,3.83
2023-01-17T15:14:35.540Z,3.80
2023-01-17T15:15:34.507Z,3.79
2023-01-17T15:16:34.570Z,3.76
2023-01-17T15:17:34.464Z,3.76
2023-01-17T15:18:35.631Z,3.76
2023-01-17T15:19:34.555Z,3.76
2023-01-17T15:20:34.436Z,3.73
2023-01-17T15:21:34.432Z,3.73
2023-01-17T15:22:34.424Z,3.73
2023-01-17T15:23:34.420Z,3.70
2023-01-17T15:24:34.431Z,3.70
2023-01-17T15:25:34.383Z,3.70
2023-01-17T15:26:34.391Z,3.69
2023-01-17T15:27:34.335Z,3.68
2023-01-17T15:28:34.342Z,3.66
2023-01-17T15:29:34.327Z,3.65
2023-01-17T15:30:34.767Z,3.62
2023-01-17T15:31:34.280Z,3.60
2023-01-17T15:32:34.292Z,3.60
2023-01-17T15:33:34.257Z,3.57
2023-01-17T15:34:34.269Z,3.54
2023-01-17T15:35:34.221Z,3.50
2023-01-17T15:36:34.353Z,3.48
2023-01-17T15:37:34.220Z,3.45
2023-01-17T15:38:38.980Z,3.40
2023-01-17T15:39:35.214Z,3.36
2023-01-17T15:40:34.707Z,3.33
2023-01-17T15:41:34.165Z,3.32
2023-01-17T15:42:34.184Z,3.31
2023-01-17T15:43:34.139Z,3.29
2023-01-17T15:44:46.986Z,3.28
2023-01-17T15:45:36.002Z,3.26
2023-01-17T15:46:34.106Z,3.23
2023-01-17T15:47:34.096Z,3.21
2023-01-17T15:48:34.086Z,3.18
2023-01-17T15:49:34.061Z,3.15
2023-01-17T15:50:34.284Z,3.15
2023-01-17T15:51:34.118Z,3.14
2023-01-17T15:52:34.013Z,3.13
2023-01-17T15:53:34.224Z,3.13
2023-01-17T15:54:34.279Z,3.11
2023-01-17T15:55:33.970Z,3.11
2023-01-17T15:56:34.003Z,3.13
2023-01-17T15:57:36.511Z,3.14
2023-01-17T15:58:33.941Z,3.15
2023-01-17T15:59:33.937Z,3.20
2023-01-17T16:00:33.924Z,3.23
2023-01-17T16:01:34.083Z,3.23
2023-01-17T16:02:34.095Z,3.23
2023-01-17T16:03:34.407Z,3.26
2023-01-17T16:04:33.861Z,3.31
2023-01-17T16:05:33.855Z,3.31
2023-01-17T16:06:33.859Z,3.32
2023-01-17T16:07:33.835Z,3.32
2023-01-17T16:08:33.827Z,3.32
2023-01-17T16:09:34.439Z,3.31
2023-01-17T16:10:33.799Z,3.29
2023-01-17T16:11:33.770Z,3.28
2023-01-17T16:12:33.819Z,3.28
2023-01-17T16:13:33.745Z,3.28
2023-01-17T16:14:51.316Z,3.26
2023-01-17T16:15:35.045Z,3.26
2023-01-17T16:16:33.751Z,3.24
2023-01-17T16:17:33.696Z,3.24
2023-01-17T16:18:33.676Z,3.18
2023-01-17T16:19:33.654Z,3.18
2023-01-17T16:20:33.665Z,3.18
2023-01-17T16:21:33.916Z,3.17
2023-01-17T16:22:33.634Z,3.14
2023-01-17T16:23:33.623Z,3.14
2023-01-17T16:24:33.652Z,3.14
2023-01-17T16:25:33.590Z,3.14
2023-01-17T16:26:33.595Z,3.14
2023-01-17T16:27:33.620Z,3.14
2023-01-17T16:28:33.592Z,3.13
2023-01-17T16:29:33.563Z,3.14
2023-01-17T16:30:33.608Z,3.13
2023-01-17T16:31:33.511Z,3.15
2023-01-17T16:32:33.537Z,3.17
2023-01-17T16:33:33.510Z,3.18
2023-01-17T16:34:33.497Z,3.20
2023-01-17T16:35:33.485Z,3.23
2023-01-17T16:36:33.509Z,3.26
2023-01-17T16:37:33.419Z,3.28
2023-01-17T16:38:33.462Z,3.31
2023-01-17T16:39:33.459Z,3.33
2023-01-17T16:40:34.357Z,3.40
2023-01-17T16:41:33.396Z,3.39
2023-01-17T16:42:33.407Z,3.31
2023-01-17T16:43:33.377Z,3.15
2023-01-17T16:44:34.311Z,3.03
2023-01-17T16:45:33.323Z,2.99
2023-01-17T16:46:33.779Z,2.95
2023-01-17T16:47:33.379Z,2.96
2023-01-17T16:48:33.308Z,2.95
2023-01-17T16:49:33.286Z,2.90
2023-01-17T16:50:33.276Z,2.85
2023-01-17T16:51:33.263Z,2.82
2023-01-17T16:52:33.334Z,2.77
2023-01-17T16:53:33.256Z,2.71
2023-01-17T16:54:33.295Z,2.67
2023-01-17T16:55:33.422Z,2.69
2023-01-17T16:56:33.243Z,2.66
2023-01-17T16:57:33.184Z,2.63
2023-01-17T16:58:33.257Z,2.59
2023-01-17T16:59:46.104Z,2.57
2023-01-17T17:00:34.289Z,2.56
2023-01-17T17:01:33.542Z,2.54
2023-01-17T17:02:33.256Z,2.53
2023-01-17T17:03:33.093Z,2.53
2023-01-17T17:04:33.111Z,2.54
2023-01-17T17:05:33.069Z,2.54
2023-01-17T17:06:33.115Z,2.54
2023-01-17T17:07:33.721Z,2.56
2023-01-17T17:08:33.053Z,2.57
2023-01-17T17:09:33.044Z,2.57
2023-01-17T17:10:33.037Z,2.59
2023-01-17T17:11:32.987Z,2.57
2023-01-17T17:12:33.041Z,2.54
2023-01-17T17:13:33.778Z,2.52
2023-01-17T17:14:33.028Z,2.46
2023-01-17T17:15:33.084Z,2.42
2023-01-17T17:16:33.009Z,2.35
2023-01-17T17:17:32.950Z,2.28
2023-01-17T17:18:32.917Z,2.25
2023-01-17T17:19:33.586Z,2.24
2023-01-17T17:20:33.029Z,2.21
2023-01-17T17:21:32.910Z,2.20
2023-01-17T17:22:32.856Z,2.20
2023-01-17T17:23:32.958Z,2.20
2023-01-17T17:24:32.864Z,2.21
2023-01-17T17:25:33.194Z,2.20
2023-01-17T17:26:32.925Z,2.21
2023-01-17T17:27:32.807Z,2.23
2023-01-17T17:28:32.778Z,2.21
2023-01-17T17:29:32.840Z,2.21
2023-01-17T17:30:32.757Z,2.21
2023-01-17T17:31:33.635Z,2.23
2023-01-17T17:32:32.742Z,2.21
2023-01-17T17:33:32.729Z,2.20
2023-01-17T17:34:32.701Z,2.20
2023-01-17T17:35:32.701Z,2.20
2023-01-17T17:36:32.660Z,2.18
2023-01-17T17:37:32.759Z,2.20
2023-01-17T17:38:32.651Z,2.18
2023-01-17T17:39:32.661Z,2.20
2023-01-17T17:40:32.618Z,2.17
2023-01-17T17:41:32.618Z,2.17
2023-01-17T17:42:32.691Z,2.17
2023-01-17T17:43:32.758Z,2.17
2023-01-17T17:44:32.593Z,2.17
2023-01-17T17:45:33.226Z,2.16
2023-01-17T17:46:32.567Z,2.14
2023-01-17T17:47:32.535Z,2.09
2023-01-17T17:48:32.520Z,2.09
2023-01-17T17:49:32.531Z,2.07
2023-01-17T17:50:32.488Z,2.06
2023-01-17T17:51:33.193Z,2.07
2023-01-17T17:52:32.475Z,2.06
2023-01-17T17:53:32.465Z,2.07
2023-01-17T17:54:32.447Z,2.03
2023-01-17T17:55:32.524Z,2.03
2023-01-17T17:56:32.398Z,2.02
2023-01-17T17:57:33.025Z,2.00
2023-01-17T17:58:32.432Z,1.99
2023-01-17T17:59:32.382Z,1.99
2023-01-17T18:00:32.677Z,1.98
2023-01-17T18:01:32.479Z,1.95
2023-01-17T18:02:32.392Z,1.95
2023-01-17T18:03:32.771Z,1.91
2023-01-17T18:04:32.382Z,1.91
2023-01-17T18:05:32.317Z,1.91
2023-01-17T18:06:32.438Z,1.91
2023-01-17T18:07:32.316Z,1.91
2023-01-17T18:08:32.268Z,1.91
2023-01-17T18:09:32.659Z,1.93
2023-01-17T18:10:32.321Z,1.90
2023-01-17T18:11:32.236Z,1.93
2023-01-17T18:12:32.210Z,1.91
2023-01-17T18:13:32.309Z,1.93
2023-01-17T18:14:32.334Z,1.91
2023-01-17T18:15:32.858Z,1.91
2023-01-17T18:16:32.177Z,1.93
2023-01-17T18:17:32.162Z,1.90
2023-01-17T18:18:32.119Z,1.88